Time;durP1;ratioP1;P1;durP2;ratioP2;P2;SDS_P1;SDS_P2;PMS_P1;PMS_P2;Temp;Humidity;BMP_temperature;BMP_pressure;BME280_temperature;BME280_humidity;BME280_pressure;Samples;Min_cycle;Max_cycle;Signal;HPM_P1;HPM_P2
2022/06/07 00:02:30;;;;;;;0.53;0.40;;;;;;;13.40;73.54;100735.91;6051019;28;20428;-65
2022/06/07 00:05:26;;;;;;;1.25;0.70;;;;;;;13.29;73.38;100732.75;6051403;28;20037;-65
2022/06/07 00:08:22;;;;;;;1.23;0.50;;;;;;;13.28;73.44;100734.56;6050569;28;20050;-65
2022/06/07 00:11:18;;;;;;;0.75;0.63;;;;;;;13.23;73.92;100720.06;6051788;28;20053;-65
2022/06/07 00:14:13;;;;;;;0.85;0.63;;;;;;;13.35;73.58;100716.09;6052258;28;20033;-66
2022/06/07 00:17:09;;;;;;;2.77;0.70;;;;;;;13.44;73.66;100720.44;6051026;28;20543;-66
2022/06/07 00:20:05;;;;;;;1.60;0.70;;;;;;;13.40;73.34;100713.78;6050255;28;20034;-66
2022/06/07 00:23:02;;;;;;;1.75;0.65;;;;;;;13.43;73.90;100724.09;6050385;28;20403;-65
2022/06/07 00:25:58;;;;;;;5.38;1.40;;;;;;;13.44;73.98;100725.78;6051312;28;20531;-66
2022/06/07 00:28:54;;;;;;;7.75;2.05;;;;;;;13.47;74.36;100726.28;6050556;28;20045;-65
2022/06/07 00:31:49;;;;;;;6.70;2.28;;;;;;;13.37;74.83;100719.44;6066282;28;20037;-66
2022/06/07 00:34:44;;;;;;;7.60;2.60;;;;;;;13.36;75.33;100723.09;6064751;28;20112;-66
2022/06/07 00:37:40;;;;;;;8.00;2.42;;;;;;;13.35;75.81;100716.94;6052840;28;20283;-66
2022/06/07 00:40:36;;;;;;;6.20;1.90;;;;;;;13.28;76.66;100720.41;6059618;28;20037;-65
2022/06/07 00:43:31;;;;;;;4.47;1.73;;;;;;;13.28;76.92;100709.75;6050386;28;20291;-66
2022/06/07 00:46:26;;;;;;;6.30;2.30;;;;;;;13.32;77.15;100703.09;6050036;28;20112;-65
2022/06/07 00:49:22;;;;;;;5.13;1.70;;;;;;;13.30;77.58;100702.44;6049327;28;20036;-66
2022/06/07 00:52:20;;;;;;;4.10;1.52;;;;;;;13.34;77.67;100701.13;6057254;28;20734;-66
2022/06/07 00:55:17;;;;;;;2.70;1.35;;;;;;;13.24;77.60;100689.75;6049162;28;20025;-65
2022/06/07 00:58:12;;;;;;;2.15;1.02;;;;;;;13.27;77.66;100697.44;6050219;28;20038;-65
2022/06/07 01:01:07;;;;;;;3.07;1.10;;;;;;;13.31;77.45;100704.13;6049070;28;20025;-65
2022/06/07 01:04:03;;;;;;;1.93;0.97;;;;;;;13.23;77.22;100696.94;6052222;28;20026;-65
2022/06/07 01:13:32;;;;;;;3.65;0.90;;;;;;;13.26;76.70;100701.13;6049632;28;20466;-66
2022/06/07 01:16:27;;;;;;;7.57;1.25;;;;;;;13.18;76.81;100698.44;6050183;28;20041;-66
2022/06/07 01:19:22;;;;;;;1.23;0.80;;;;;;;13.20;76.36;100701.75;6049540;28;20029;-65
2022/06/07 01:22:18;;;;;;;3.90;1.13;;;;;;;13.11;76.77;100703.56;6044758;28;20491;-65
2022/06/07 01:25:14;;;;;;;2.70;1.10;;;;;;;13.08;76.86;100706.53;6049443;28;20029;-65
2022/06/07 01:28:09;;;;;;;2.23;1.03;;;;;;;13.11;76.63;100703.56;6049492;28;20044;-65
2022/06/07 01:31:04;;;;;;;3.00;1.20;;;;;;;13.05;76.72;100699.69;6048980;28;20528;-65
2022/06/07 01:34:00;;;;;;;2.97;1.10;;;;;;;13.13;76.88;100701.56;6057164;28;20544;-65
2022/06/07 01:36:57;;;;;;;2.42;1.00;;;;;;;13.11;76.59;100707.06;6053164;28;20036;-65
2022/06/07 01:43:06;;;;;;;1.60;0.93;;;;;;;13.05;76.84;100689.03;6050186;28;20489;-65
2022/06/07 01:46:05;;;;;;;1.53;1.00;;;;;;;13.15;76.64;100699.59;6049263;28;20030;-65
2022/06/07 01:49:00;;;;;;;1.65;0.90;;;;;;;13.01;77.00;100682.38;6048890;28;20022;-66
2022/06/07 01:51:56;;;;;;;2.77;1.00;;;;;;;13.20;76.15;100688.44;6057591;28;20095;-65
2022/06/07 01:54:54;;;;;;;2.67;0.90;;;;;;;13.25;76.57;100683.44;6050557;28;20092;-65
2022/06/07 01:57:49;;;;;;;2.78;1.10;;;;;;;13.15;76.21;100696.09;6048624;28;20690;-65
2022/06/07 02:00:44;;;;;;;3.00;1.00;;;;;;;13.04;76.19;100679.38;6045877;28;20037;-65
2022/06/07 02:03:40;;;;;;;2.10;0.93;;;;;;;12.86;76.87;100681.31;6055360;28;20049;-65
2022/06/07 02:06:35;;;;;;;3.67;1.08;;;;;;;13.06;76.71;100674.75;6059879;28;20036;-65
2022/06/07 02:09:31;;;;;;;1.20;0.97;;;;;;;13.09;76.20;100670.94;6054071;28;20030;-65
2022/06/07 02:12:26;;;;;;;4.83;1.17;;;;;;;13.05;76.83;100683.72;6053986;28;20051;-65
2022/06/07 02:15:22;;;;;;;4.93;1.50;;;;;;;13.09;76.74;100674.44;6053160;28;20041;-65
2022/06/07 02:18:17;;;;;;;2.40;1.43;;;;;;;13.07;76.83;100668.44;6051018;28;20038;-65
2022/06/07 02:21:13;;;;;;;2.33;1.20;;;;;;;13.10;77.22;100667.28;6054033;28;20061;-65
2022/06/07 02:24:09;;;;;;;3.38;1.38;;;;;;;13.14;77.15;100660.63;6044547;28;20034;-65
2022/06/07 02:27:11;;;;;;;3.50;1.17;;;;;;;13.08;77.26;100664.78;6056810;28;20045;-65
2022/06/07 02:30:08;;;;;;;2.63;1.33;;;;;;;13.16;77.02;100663.13;6067062;28;20045;-65
2022/06/07 02:33:04;;;;;;;2.10;1.40;;;;;;;13.14;77.07;100660.63;6059529;28;20129;-65
2022/06/07 02:35:59;;;;;;;2.22;1.15;;;;;;;13.14;77.40;100665.97;6060292;28;20025;-65
2022/06/07 02:38:55;;;;;;;2.93;1.37;;;;;;;13.16;77.14;100658.63;6063860;28;20067;-65
2022/06/07 02:41:50;;;;;;;6.20;1.90;;;;;;;13.13;77.22;100654.47;6052621;28;20113;-65
2022/06/07 02:44:46;;;;;;;7.25;1.38;;;;;;;13.15;77.50;100653.50;6052951;28;20117;-66
2022/06/07 02:47:43;;;;;;;2.20;1.30;;;;;;;13.28;77.08;100665.31;6053217;28;20117;-65
2022/06/07 02:50:39;;;;;;;3.78;1.30;;;;;;;13.29;76.97;100652.84;6052306;28;20374;-65
2022/06/07 02:53:34;;;;;;;3.00;1.38;;;;;;;13.31;77.07;100656.16;6052600;28;20029;-66
2022/06/07 02:56:30;;;;;;;2.17;1.30;;;;;;;13.30;76.91;100659.81;6057927;28;20473;-65
2022/06/07 02:59:25;;;;;;;3.27;1.50;;;;;;;13.36;77.01;100653.84;6052430;28;20265;-65
2022/06/07 03:02:20;;;;;;;4.50;2.00;;;;;;;13.34;76.85;100653.19;6063187;28;20041;-65
2022/06/07 03:05:16;;;;;;;2.13;1.30;;;;;;;13.40;76.79;100655.19;6054663;28;20483;-67
2022/06/07 03:08:14;;;;;;;2.10;1.20;;;;;;;13.40;76.31;100644.53;6052385;28;20505;-66
2022/06/07 03:11:10;;;;;;;4.68;1.40;;;;;;;13.51;76.04;100657.50;6051441;28;20038;-65
2022/06/07 03:14:05;;;;;;;2.78;1.40;;;;;;;13.53;75.94;100653.66;6051764;28;20038;-65
2022/06/07 03:17:01;;;;;;;2.33;1.20;;;;;;;13.54;76.16;100657.16;6052482;28;20034;-65
2022/06/07 03:19:56;;;;;;;3.25;1.40;;;;;;;13.51;76.07;100650.34;6052803;28;20037;-65
2022/06/07 03:22:52;;;;;;;3.43;1.43;;;;;;;13.42;76.13;100645.19;6051536;28;20033;-65
2022/06/07 03:25:47;;;;;;;3.50;1.30;;;;;;;13.47;76.20;100653.50;6052251;28;20604;-65
2022/06/07 03:28:43;;;;;;;2.60;1.30;;;;;;;13.69;76.13;100655.53;6051932;28;20042;-65
2022/06/07 03:31:39;;;;;;;5.25;1.75;;;;;;;13.59;75.99;100649.50;6055624;28;20039;-65
2022/06/07 03:34:35;;;;;;;2.33;1.40;;;;;;;13.61;76.00;100650.19;6060759;28;20045;-65
2022/06/07 03:37:30;;;;;;;3.50;1.40;;;;;;;13.44;76.26;100641.38;6065804;28;20060;-65
2022/06/07 03:40:43;;;;;;;3.08;1.33;;;;;;;13.46;76.91;100647.34;6062483;28;20034;-65
2022/06/07 03:43:39;;;;;;;6.20;1.70;;;;;;;13.40;77.08;100633.88;6053020;28;20059;-65
2022/06/07 03:46:34;;;;;;;3.40;1.60;;;;;;;13.47;77.22;100641.03;6055492;28;20113;-65
2022/06/07 03:49:31;;;;;;;3.50;1.60;;;;;;;13.48;77.03;100632.03;6055232;28;20030;-65
2022/06/07 03:52:26;;;;;;;3.10;1.48;;;;;;;13.53;76.83;100629.69;6050977;28;20176;-65
2022/06/07 03:55:21;;;;;;;7.27;2.27;;;;;;;13.67;76.79;100636.19;6058839;28;20033;-65
2022/06/07 03:58:16;;;;;;;10.90;3.63;;;;;;;13.70;77.22;100646.50;6057281;28;20699;-65
2022/06/07 04:01:15;;;;;;;13.10;3.87;;;;;;;13.73;77.43;100638.19;6050889;28;20037;-65
2022/06/07 04:04:11;;;;;;;12.93;3.88;;;;;;;13.75;76.96;100638.88;6053222;28;20287;-65
2022/06/07 04:10:20;;;;;;;12.50;3.50;;;;;;;13.83;77.22;100640.69;6050472;28;20042;-65
2022/06/07 04:13:16;;;;;;;8.10;3.20;;;;;;;13.89;76.89;100635.50;6057361;28;20069;-65
2022/06/07 04:16:13;;;;;;;5.97;2.35;;;;;;;13.97;76.76;100632.81;6051241;28;20275;-66
2022/06/07 04:19:09;;;;;;;9.45;3.17;;;;;;;13.95;76.65;100634.81;6056491;28;20120;-65
2022/06/07 04:22:04;;;;;;;8.97;1.70;;;;;;;14.07;76.79;100646.81;6053738;28;20034;-65
2022/06/07 04:25:00;;;;;;;3.25;1.48;;;;;;;14.11;76.02;100633.94;6050384;28;20042;-65
2022/06/07 04:27:55;;;;;;;5.07;1.40;;;;;;;14.23;76.00;100637.91;6056265;28;20393;-65
2022/06/07 04:30:50;;;;;;;2.75;1.60;;;;;;;14.03;76.48;100631.28;6059416;28;20285;-65
2022/06/07 04:33:46;;;;;;;4.50;1.50;;;;;;;13.90;77.23;100637.16;6050872;28;20060;-65
2022/06/07 04:36:42;;;;;;;3.33;1.23;;;;;;;13.95;77.58;100642.81;6053529;28;20276;-65
2022/06/07 04:39:37;;;;;;;5.97;1.63;;;;;;;13.93;76.92;100631.50;6050090;28;20018;-65
2022/06/07 04:42:32;;;;;;;3.03;1.60;;;;;;;13.93;76.63;100626.16;6054709;28;20060;-65
2022/06/07 04:45:27;;;;;;;4.87;2.80;;;;;;;13.98;77.26;100629.16;6057611;28;20033;-65
2022/06/07 04:48:23;;;;;;;7.30;2.23;;;;;;;14.09;76.50;100626.13;6053804;28;20612;-65
2022/06/07 04:51:25;;;;;;;9.80;2.87;;;;;;;14.06;76.39;100626.47;6050945;28;20285;-64
2022/06/07 04:54:20;;;;;;;6.07;2.30;;;;;;;14.32;74.69;100612.94;6049784;28;20092;-67
2022/06/07 04:57:15;;;;;;;6.32;1.70;;;;;;;14.62;73.83;100616.63;6056012;28;20033;-65
2022/06/07 05:00:14;;;;;;;6.97;2.30;;;;;;;14.63;72.32;100616.44;6049110;28;20461;-65
2022/06/07 05:03:10;;;;;;;6.10;2.47;;;;;;;14.60;73.31;100616.78;6059484;28;20041;-65
2022/06/07 05:06:30;;;;;;;7.63;2.37;;;;;;;14.34;73.85;100620.75;6049656;28;20041;-66
2022/06/07 05:09:27;;;;;;;5.45;1.73;;;;;;;14.21;75.18;100629.28;6050170;28;20481;-66
2022/06/07 05:12:22;;;;;;;6.13;1.75;;;;;;;14.86;72.82;100603.16;6054267;28;20042;-66
2022/06/07 05:15:17;;;;;;;4.60;1.57;;;;;;;15.54;71.78;100613.03;6057845;28;20036;-66
2022/06/07 05:18:13;;;;;;;4.57;1.50;;;;;;;15.63;69.51;100601.22;6058208;28;20037;-65
2022/06/07 05:21:11;;;;;;;3.80;1.60;;;;;;;16.11;67.63;100611.44;6054820;28;20060;-66
2022/06/07 05:24:06;;;;;;;3.15;1.50;;;;;;;16.47;66.10;100606.97;6049515;28;20524;-65
2022/06/07 05:27:04;;;;;;;3.13;1.50;;;;;;;16.09;67.64;100613.47;6063331;28;20120;-66
2022/06/07 05:29:59;;;;;;;3.78;1.30;;;;;;;16.67;66.57;100601.91;6052275;28;20112;-65
2022/06/07 05:32:54;;;;;;;3.03;1.27;;;;;;;16.96;66.00;100611.72;6056345;28;20396;-66
2022/06/07 05:35:49;;;;;;;3.73;1.63;;;;;;;16.81;65.12;100613.59;6061188;28;20021;-66
2022/06/07 05:38:46;;;;;;;3.37;1.40;;;;;;;17.45;63.84;100612.59;6056429;28;20052;-66
2022/06/07 05:41:41;;;;;;;4.63;1.30;;;;;;;17.18;64.58;100608.00;6051630;28;20044;-66
2022/06/07 05:44:36;;;;;;;6.40;1.30;;;;;;;17.76;64.13;100605.06;6049183;28;20022;-65
2022/06/07 05:47:31;;;;;;;2.50;1.33;;;;;;;18.11;60.12;100599.72;6052336;28;20064;-66
2022/06/07 05:50:27;;;;;;;4.47;1.60;;;;;;;17.92;61.54;100603.09;6050386;28;20397;-66
2022/06/07 05:53:23;;;;;;;3.90;1.30;;;;;;;18.61;59.30;100598.56;6058892;28;20037;-66
2022/06/07 05:56:18;;;;;;;3.00;1.35;;;;;;;18.32;59.36;100604.97;6056668;28;20277;-66
2022/06/07 05:59:13;;;;;;;5.57;1.50;;;;;;;18.37;59.49;100599.88;6050022;28;20741;-66
2022/06/07 06:02:11;;;;;;;3.13;1.30;;;;;;;18.35;59.60;100604.59;6048297;28;20046;-66
2022/06/07 06:05:06;;;;;;;2.40;1.42;;;;;;;18.96;57.46;100597.44;6058158;28;20160;-66
2022/06/07 06:11:21;;;;;;;4.38;1.65;;;;;;;18.42;59.44;100602.78;6040575;28;20037;-66
2022/06/07 06:14:17;;;;;;;3.30;1.40;;;;;;;18.14;59.27;100599.31;6049157;28;20033;-66
2022/06/07 06:17:13;;;;;;;3.50;1.50;;;;;;;18.19;59.64;100599.56;6057350;28;20037;-66
2022/06/07 06:20:09;;;;;;;2.60;1.33;;;;;;;18.42;59.67;100594.72;6048238;28;20040;-66
2022/06/07 06:23:04;;;;;;;3.53;1.60;;;;;;;18.21;59.39;100601.00;6054589;28;20504;-66
2022/06/07 06:26:00;;;;;;;4.07;1.23;;;;;;;18.27;59.36;100597.53;6048586;28;20030;-67
2022/06/07 06:28:55;;;;;;;4.27;1.20;;;;;;;18.80;57.95;100597.78;6060847;28;20049;-66
2022/06/07 06:31:51;;;;;;;2.75;1.30;;;;;;;18.94;57.21;100583.38;6052171;28;20268;-66
2022/06/07 06:34:47;;;;;;;3.13;1.30;;;;;;;18.88;57.51;100589.56;6061173;28;20060;-66
2022/06/07 06:37:42;;;;;;;3.07;1.20;;;;;;;18.39;59.52;100595.97;6053850;28;20033;-66
2022/06/07 06:40:38;;;;;;;4.23;1.37;;;;;;;19.32;55.54;100581.75;6046948;28;20022;-66
2022/06/07 06:43:33;;;;;;;2.97;1.45;;;;;;;18.52;58.21;100584.47;6048466;28;20512;-66
2022/06/07 06:46:31;;;;;;;3.10;1.40;;;;;;;18.64;57.92;100599.00;6053227;28;20029;-66
2022/06/07 06:49:27;;;;;;;4.35;1.35;;;;;;;19.27;56.10;100594.19;6053801;28;20026;-65
2022/06/07 06:52:22;;;;;;;3.72;1.20;;;;;;;19.28;57.30;100590.44;6044993;28;20033;-66
2022/06/07 06:55:18;;;;;;;3.78;1.50;;;;;;;18.89;58.08;100585.81;6053418;28;20029;-66
2022/06/07 06:58:13;;;;;;;2.03;1.20;;;;;;;18.99;57.55;100579.03;6055978;28;20084;-66
2022/06/07 07:01:12;;;;;;;2.53;1.10;;;;;;;19.16;58.05;100592.09;6052712;28;20041;-66
2022/06/07 07:04:15;;;;;;;3.60;1.58;;;;;;;19.77;55.31;100593.59;6051848;28;20045;-66
2022/06/07 07:07:10;;;;;;;2.50;1.35;;;;;;;20.23;55.73;100584.56;6063903;28;20038;-66
2022/06/07 07:10:07;;;;;;;3.92;1.00;;;;;;;20.45;52.85;100581.44;6053004;28;20033;-67
2022/06/07 07:13:02;;;;;;;2.72;1.10;;;;;;;19.85;53.80;100590.66;6049692;28;20048;-66
2022/06/07 07:15:57;;;;;;;3.33;1.30;;;;;;;19.70;52.70;100595.47;6049740;28;20120;-66
2022/06/07 07:18:53;;;;;;;1.92;1.17;;;;;;;19.75;52.15;100601.03;6049665;28;20297;-66
2022/06/07 07:21:50;;;;;;;2.20;1.20;;;;;;;19.90;51.36;100607.03;6050127;28;20030;-66
2022/06/07 07:24:45;;;;;;;4.15;1.25;;;;;;;20.06;52.53;100611.97;6051708;28;20120;-67
2022/06/07 07:27:41;;;;;;;4.10;1.25;;;;;;;20.53;49.33;100596.53;6053981;28;20458;-66
2022/06/07 07:30:37;;;;;;;4.97;1.23;;;;;;;20.03;49.66;100601.59;6050384;28;20088;-66
2022/06/07 07:33:34;;;;;;;3.00;1.20;;;;;;;19.93;49.03;100608.47;6051554;28;20042;-66
2022/06/07 07:36:29;;;;;;;2.53;1.00;;;;;;;19.71;49.70;100602.47;6059805;28;20049;-66
2022/06/07 07:39:25;;;;;;;2.00;1.02;;;;;;;19.92;50.92;100604.13;6051759;28;20037;-66
2022/06/07 07:42:20;;;;;;;2.33;1.00;;;;;;;20.10;50.34;100598.91;6054424;28;20029;-66
2022/06/07 07:45:17;;;;;;;4.87;1.07;;;;;;;20.77;47.68;100598.47;6052014;28;20421;-67
2022/06/07 07:48:13;;;;;;;2.90;1.10;;;;;;;20.71;46.40;100592.09;6060280;28;20428;-66
2022/06/07 07:51:10;;;;;;;3.27;0.70;;;;;;;20.32;45.90;100607.59;6055916;28;20084;-66
2022/06/07 07:54:07;;;;;;;2.65;1.10;;;;;;;20.38;46.78;100598.66;6058320;28;20410;-66
2022/06/07 07:57:03;;;;;;;2.92;1.25;;;;;;;20.18;46.14;100604.06;6050735;28;20046;-66
2022/06/07 07:59:58;;;;;;;2.47;1.08;;;;;;;20.23;46.75;100595.34;6050206;28;20096;-66
2022/06/07 08:02:55;;;;;;;2.27;1.00;;;;;;;20.24;47.00;100597.00;6054770;28;20050;-66
2022/06/07 08:05:50;;;;;;;1.88;0.93;;;;;;;20.18;47.65;100594.13;6051264;28;20025;-66
2022/06/07 08:08:49;;;;;;;2.10;0.93;;;;;;;20.18;46.53;100596.81;6051040;28;20034;-67
2022/06/07 08:11:45;;;;;;;2.92;0.85;;;;;;;20.46;47.63;100590.34;6049353;28;20030;-66
2022/06/07 08:14:40;;;;;;;2.00;0.90;;;;;;;20.47;45.57;100592.81;6056790;28;20042;-67
2022/06/07 08:17:35;;;;;;;2.00;1.00;;;;;;;20.60;45.04;100590.06;6057103;28;20035;-67
2022/06/07 08:20:35;;;;;;;4.20;1.43;;;;;;;20.70;45.29;100586.91;6053280;28;20351;-66
2022/06/07 08:23:31;;;;;;;6.18;1.58;;;;;;;20.48;45.39;100585.56;6056928;28;20033;-67
2022/06/07 08:26:26;;;;;;;2.38;0.90;;;;;;;20.50;46.70;100580.78;6052385;28;20482;-66
2022/06/07 08:29:22;;;;;;;2.03;1.10;;;;;;;20.68;46.23;100583.63;6062326;28;20072;-66
2022/06/07 08:32:17;;;;;;;3.38;1.00;;;;;;;20.07;46.12;100586.69;6052973;28;20034;-66
2022/06/07 08:38:31;;;;;;;2.45;1.00;;;;;;;20.62;46.94;100579.09;6059178;28;20037;-67
2022/06/07 08:41:31;;;;;;;3.30;1.10;;;;;;;20.57;45.47;100571.63;6052310;28;20057;-66
2022/06/07 08:44:46;;;;;;;2.75;1.02;;;;;;;20.73;45.23;100565.75;6050649;28;20421;-67
2022/06/07 08:47:48;;;;;;;2.95;1.00;;;;;;;20.57;45.85;100574.31;6051104;28;20525;-66
2022/06/07 08:50:54;;;;;;;3.45;1.00;;;;;;;20.90;44.92;100576.84;6049379;28;20040;-66
2022/06/07 08:53:55;;;;;;;1.63;1.00;;;;;;;20.76;44.84;100576.09;6052365;28;20118;-66
2022/06/07 08:56:51;;;;;;;2.53;1.42;;;;;;;21.11;46.52;100570.31;6052569;28;20026;-66
2022/06/07 08:59:48;;;;;;;1.73;1.17;;;;;;;21.15;44.56;100568.84;6050855;28;20473;-66
2022/06/07 09:03:06;;;;;;;5.00;1.10;;;;;;;21.24;47.12;100568.38;6051189;28;20485;-66
2022/06/07 09:06:04;;;;;;;6.43;1.30;;;;;;;21.28;44.82;100566.88;6047459;28;20441;-66
2022/06/07 09:08:59;;;;;;;4.47;1.10;;;;;;;21.42;45.13;100569.44;6055912;28;20033;-66
2022/06/07 09:12:13;;;;;;;2.20;1.00;;;;;;;21.39;44.45;100551.03;6047882;28;20111;-66
2022/06/07 09:15:15;;;;;;;1.17;0.85;;;;;;;21.24;43.63;100562.97;6048779;28;20073;-66
2022/06/07 09:18:13;;;;;;;3.72;1.13;;;;;;;21.54;43.70;100552.34;6049831;28;20052;-66
2022/06/07 09:21:20;;;;;;;3.53;0.98;;;;;;;21.56;42.41;100546.72;6051293;28;20473;-66
2022/06/07 09:24:26;;;;;;;1.38;1.10;;;;;;;21.55;41.56;100563.97;6075402;28;20124;-66
2022/06/07 09:27:24;;;;;;;2.28;0.82;;;;;;;21.68;42.00;100563.84;6050673;28;20489;-67
2022/06/07 09:30:27;;;;;;;2.30;1.08;;;;;;;21.56;41.78;100549.41;6057602;28;20835;-67
2022/06/07 09:33:34;;;;;;;3.85;0.98;;;;;;;21.97;43.21;100548.81;6049221;28;20403;-67
2022/06/07 09:36:36;;;;;;;1.98;0.93;;;;;;;22.27;41.45;100541.63;6049443;28;20034;-66
2022/06/07 09:39:37;;;;;;;1.67;1.00;;;;;;;21.80;40.62;100552.06;6049358;28;20413;-66
2022/06/07 09:42:32;;;;;;;4.70;1.13;;;;;;;22.18;40.65;100538.41;6063394;28;20053;-66
2022/06/07 09:45:33;;;;;;;1.50;0.80;;;;;;;22.21;40.82;100537.94;6048849;28;20446;-66
2022/06/07 09:48:40;;;;;;;1.05;0.60;;;;;;;22.17;39.19;100531.38;6049091;28;20284;-66
2022/06/07 09:51:40;;;;;;;1.92;1.10;;;;;;;22.41;39.49;100535.84;6048161;28;20065;-66
2022/06/07 09:54:40;;;;;;;2.88;1.10;;;;;;;22.22;39.63;100523.41;6058248;28;20452;-66
2022/06/07 09:57:38;;;;;;;6.18;0.93;;;;;;;22.33;40.24;100530.75;6051654;28;20084;-66
2022/06/07 10:00:50;;;;;;;3.15;1.10;;;;;;;22.69;39.44;100519.06;6047395;28;20037;-66
2022/06/07 10:03:52;;;;;;;1.77;0.90;;;;;;;23.44;41.23;100525.59;6046404;28;20204;-67
2022/06/07 10:06:55;;;;;;;2.90;1.05;;;;;;;23.07;39.06;100522.22;6050067;28;20083;-67
2022/06/07 10:10:03;;;;;;;2.53;1.00;;;;;;;23.00;39.69;100531.50;6047214;28;20053;-66
2022/06/07 10:13:26;;;;;;;1.83;0.85;;;;;;;22.95;38.78;100526.78;6078944;28;20030;-67
2022/06/07 10:16:38;;;;;;;1.73;0.82;;;;;;;22.93;39.74;100531.63;6065134;28;20034;-67
2022/06/07 10:19:54;;;;;;;1.50;1.00;;;;;;;23.18;39.75;100522.50;6063861;28;20084;-67
2022/06/07 10:22:53;;;;;;;2.08;1.08;;;;;;;22.78;39.29;100528.50;6072682;28;20030;-66
2022/06/07 10:26:19;;;;;;;1.67;0.93;;;;;;;22.53;41.28;100525.88;6069011;28;20601;-67
2022/06/07 10:29:31;;;;;;;4.97;1.65;;;;;;;22.49;38.04;100526.59;6053655;28;20477;-67
2022/06/07 10:32:57;;;;;;;1.70;0.90;;;;;;;22.37;39.68;100518.41;6067941;28;20342;-66
2022/06/07 10:36:17;;;;;;;1.52;0.90;;;;;;;22.46;38.81;100541.38;6052909;28;20367;-66
2022/06/07 10:39:26;;;;;;;1.40;0.90;;;;;;;22.36;40.83;100527.59;6053189;28;20108;-66
2022/06/07 10:42:34;;;;;;;2.05;1.17;;;;;;;22.54;39.57;100535.66;6067617;28;20069;-67
2022/06/07 10:45:37;;;;;;;1.67;1.15;;;;;;;22.14;39.33;100539.09;6071735;28;20113;-66
2022/06/07 10:48:57;;;;;;;2.63;1.10;;;;;;;22.09;40.44;100534.38;6033363;28;20672;-67
2022/06/07 10:55:28;;;;;;;2.28;1.10;;;;;;;21.92;38.85;100523.34;6048849;28;20477;-66
2022/06/07 10:58:37;;;;;;;1.60;0.90;;;;;;;22.27;39.52;100526.25;6056202;28;20051;-66
2022/06/07 11:01:49;;;;;;;2.40;1.10;;;;;;;22.64;38.92;100516.22;6043482;28;20036;-67
2022/06/07 11:11:35;;;;;;;5.13;1.20;;;;;;;22.74;38.17;100515.66;6053683;28;20037;-67
2022/06/07 11:14:58;;;;;;;3.92;0.73;;;;;;;22.93;40.25;100517.25;6051201;28;20426;-67
2022/06/07 11:17:59;;;;;;;3.35;1.05;;;;;;;22.98;38.38;100522.78;6051771;28;20113;-67
2022/06/07 11:21:00;;;;;;;1.30;0.90;;;;;;;22.85;37.04;100517.59;6053627;28;20061;-67
2022/06/07 11:24:07;;;;;;;3.72;1.23;;;;;;;22.70;37.76;100509.06;6051787;28;20531;-67
2022/06/07 11:27:08;;;;;;;1.20;0.75;;;;;;;23.25;35.91;100510.50;6052091;28;20034;-67
2022/06/07 11:30:28;;;;;;;1.92;0.95;;;;;;;23.84;38.04;100505.91;6051281;28;20473;-67
2022/06/07 11:33:42;;;;;;;1.60;1.10;;;;;;;23.94;37.72;100504.28;6065881;28;20500;-67
2022/06/07 11:36:41;;;;;;;6.15;0.90;;;;;;;23.70;37.97;100516.16;6052652;28;20120;-67
2022/06/07 11:39:40;;;;;;;1.35;0.93;;;;;;;22.98;37.31;100517.38;6051578;28;20088;-67
2022/06/07 11:42:36;;;;;;;2.45;1.00;;;;;;;22.43;37.57;100516.69;6050584;28;20037;-66
2022/06/07 11:45:51;;;;;;;1.40;0.73;;;;;;;23.05;38.87;100508.09;6066881;28;20026;-67
2022/06/07 11:48:46;;;;;;;3.30;1.02;;;;;;;22.95;37.22;100501.63;6051622;28;20446;-67
2022/06/07 11:51:41;;;;;;;2.70;1.10;;;;;;;23.41;40.03;100507.13;6066553;28;20081;-67
2022/06/07 11:54:45;;;;;;;1.97;0.97;;;;;;;23.70;36.38;100517.00;6052121;28;20273;-66
2022/06/07 11:57:56;;;;;;;1.98;0.80;;;;;;;23.93;37.63;100496.38;6051315;28;20353;-67
2022/06/07 12:00:51;;;;;;;1.38;0.88;;;;;;;24.26;36.73;100510.94;6050511;28;20432;-67
2022/06/07 12:04:06;;;;;;;1.58;1.20;;;;;;;23.90;36.11;100491.44;6066395;28;20029;-66
2022/06/07 12:07:29;;;;;;;3.85;1.35;;;;;;;23.78;36.43;100496.06;6051818;28;20112;-67
2022/06/07 12:10:24;;;;;;;2.65;1.10;;;;;;;23.42;37.42;100492.53;6052686;28;20180;-67
2022/06/07 12:16:57;;;;;;;2.85;1.08;;;;;;;23.65;38.07;100476.28;6063532;28;20049;-67
2022/06/07 12:19:53;;;;;;;1.67;0.85;;;;;;;24.16;36.38;100480.09;6050337;28;20025;-67
2022/06/07 12:22:48;;;;;;;1.73;1.00;;;;;;;24.17;36.27;100479.03;6050287;28;20547;-67
2022/06/07 12:25:56;;;;;;;1.83;0.83;;;;;;;24.06;36.69;100474.41;6051247;28;20026;-68
2022/06/07 12:28:54;;;;;;;2.55;1.10;;;;;;;23.67;36.77;100473.34;6048451;28;20018;-67
2022/06/07 12:31:54;;;;;;;3.55;1.05;;;;;;;23.38;38.51;100469.69;6047997;28;20034;-67
2022/06/07 12:35:03;;;;;;;2.30;1.30;;;;;;;23.66;40.16;100471.69;6048575;28;20124;-67
2022/06/07 12:38:00;;;;;;;2.90;1.02;;;;;;;23.75;38.75;100474.84;6049885;28;20084;-68
2022/06/07 12:41:07;;;;;;;4.70;1.00;;;;;;;23.51;37.87;100463.19;6049026;28;20081;-67
2022/06/07 12:44:03;;;;;;;3.65;0.93;;;;;;;23.53;38.23;100456.53;6051816;28;20069;-67
2022/06/07 12:47:01;;;;;;;3.15;1.20;;;;;;;23.49;40.22;100460.75;6038855;28;20429;-67
2022/06/07 12:49:56;;;;;;;2.88;1.25;;;;;;;23.27;38.74;100477.78;6057715;28;20034;-67
2022/06/07 12:52:53;;;;;;;2.58;1.00;;;;;;;23.46;40.17;100454.97;6049293;28;20033;-68
2022/06/07 12:55:55;;;;;;;2.05;1.02;;;;;;;23.50;40.68;100458.88;6055849;28;20037;-67
2022/06/07 12:58:52;;;;;;;3.28;1.00;;;;;;;23.50;40.36;100451.56;6069502;28;20056;-67
2022/06/07 13:01:49;;;;;;;2.80;1.02;;;;;;;23.49;39.75;100447.22;6056745;28;20030;-67
2022/06/07 13:04:48;;;;;;;2.35;0.98;;;;;;;23.37;39.90;100461.78;6053203;28;20372;-67
2022/06/07 13:07:48;;;;;;;3.00;1.05;;;;;;;23.01;41.17;100446.59;6067106;28;20042;-67
2022/06/07 13:10:44;;;;;;;4.50;1.30;;;;;;;23.17;41.54;100451.31;6049234;28;20036;-68
2022/06/07 13:13:41;;;;;;;2.65;1.00;;;;;;;23.19;43.03;100454.59;6049881;28;20037;-67
2022/06/07 13:16:41;;;;;;;2.05;0.98;;;;;;;23.03;41.94;100455.28;6068841;28;20037;-67
2022/06/07 13:19:41;;;;;;;3.25;1.00;;;;;;;22.86;43.50;100462.41;6050493;28;20026;-67
2022/06/07 13:22:39;;;;;;;3.75;1.23;;;;;;;22.69;43.63;100453.34;6055243;28;20098;-67
2022/06/07 13:25:34;;;;;;;2.33;1.00;;;;;;;22.80;43.75;100456.06;6075182;28;20143;-67
2022/06/07 13:28:32;;;;;;;3.23;1.07;;;;;;;22.87;42.88;100448.69;6053317;28;20029;-67
2022/06/07 13:31:46;;;;;;;2.30;1.15;;;;;;;22.95;41.85;100447.50;6054571;28;20044;-67
2022/06/07 13:34:53;;;;;;;2.85;1.13;;;;;;;23.00;42.97;100451.16;6055552;28;20065;-68
2022/06/07 13:38:00;;;;;;;1.80;1.00;;;;;;;23.04;43.31;100454.25;6060920;28;20048;-67
2022/06/07 13:41:09;;;;;;;4.38;1.40;;;;;;;23.51;41.81;100446.97;6048630;28;20468;-68
2022/06/07 13:44:05;;;;;;;4.22;1.30;;;;;;;23.63;40.70;100450.50;6049390;28;20527;-68
2022/06/07 13:47:04;;;;;;;3.08;1.30;;;;;;;23.30;41.06;100445.66;6050017;28;20042;-67
2022/06/07 13:53:29;;;;;;;1.25;1.02;;;;;;;24.60;37.75;100435.91;6050211;28;20029;-67
2022/06/07 13:56:25;;;;;;;3.67;1.30;;;;;;;24.37;38.67;100441.47;6053186;28;20033;-67
2022/06/07 13:59:20;;;;;;;2.13;1.30;;;;;;;24.44;41.06;100442.13;6053628;28;20440;-67
2022/06/07 14:02:15;;;;;;;4.10;1.50;;;;;;;23.77;41.60;100445.63;6055331;28;20034;-67
2022/06/07 14:05:25;;;;;;;1.33;1.07;;;;;;;23.14;43.90;100443.66;6052478;28;20393;-67
2022/06/07 14:08:21;;;;;;;3.35;2.00;;;;;;;22.25;46.95;100460.81;6053678;28;20079;-67
2022/06/07 14:11:16;;;;;;;3.90;2.75;;;;;;;21.70;49.27;100453.75;6053532;28;20037;-67
2022/06/07 14:14:12;;;;;;;7.95;2.53;;;;;;;22.52;47.62;100462.09;6048993;28;20441;-67
2022/06/07 14:17:13;;;;;;;3.75;2.40;;;;;;;23.56;46.74;100445.19;6049238;28;20060;-68
2022/06/07 14:20:15;;;;;;;4.10;2.28;;;;;;;23.71;45.83;100455.53;6073701;28;20033;-66
2022/06/07 14:23:12;;;;;;;4.90;2.80;;;;;;;23.84;44.77;100452.56;6056939;28;20086;-67
2022/06/07 14:26:07;;;;;;;3.53;2.10;;;;;;;23.98;46.03;100453.13;6057261;28;20363;-67
2022/06/07 14:29:02;;;;;;;5.05;2.42;;;;;;;23.66;45.53;100445.44;6058474;28;20049;-67